Time;durP1;ratioP1;P1;durP2;ratioP2;P2;SDS_P1;SDS_P2;PMS_P1;PMS_P2;Temp;Humidity;BMP_temperature;BMP_pressure;BME280_temperature;BME280_humidity;BME280_pressure;Samples;Min_cycle;Max_cycle;Signal;HPM_P1;HPM_P2
2023/04/19 00:01:12;;;;;;;23.00;20.85;;;;;;;;;;5010846;28;20048;-74
2023/04/19 00:03:38;;;;;;;23.58;19.80;;;;;;;;;;5005360;28;20030;-73
2023/04/19 00:06:03;;;;;;;20.75;18.77;;;;;;;;;;5004813;28;20025;-74
2023/04/19 00:08:28;;;;;;;21.95;19.85;;;;;;;;;;5011341;28;20083;-74
2023/04/19 00:10:54;;;;;;;21.77;19.63;;;;;;;;;;5007062;28;20371;-73
2023/04/19 00:13:20;;;;;;;21.17;18.52;;;;;;;;;;5003233;28;20944;-71
2023/04/19 00:15:46;;;;;;;23.25;20.83;;;;;;;;;;5012910;28;20079;-72
2023/04/19 00:18:11;;;;;;;23.30;19.58;;;;;;;;;;5015661;28;20057;-72
2023/04/19 00:20:37;;;;;;;21.45;19.35;;;;;;;;;;5011397;28;20026;-73
2023/04/19 00:23:02;;;;;;;23.02;20.52;;;;;;;;;;5007057;28;20021;-72
2023/04/19 00:25:29;;;;;;;25.33;22.65;;;;;;;;;;5013301;28;20037;-71
2023/04/19 00:27:55;;;;;;;27.30;23.67;;;;;;;;;;5013915;28;20592;-75
2023/04/19 00:30:20;;;;;;;28.60;25.67;;;;;;;;;;5000338;28;20030;-73
2023/04/19 00:32:45;;;;;;;27.77;24.02;;;;;;;;;;5015174;28;20034;-73
2023/04/19 00:35:11;;;;;;;31.65;26.40;;;;;;;;;;5007461;28;20471;-72
2023/04/19 00:37:36;;;;;;;30.52;27.52;;;;;;;;;;5004608;28;20440;-74
2023/04/19 00:40:03;;;;;;;29.05;26.13;;;;;;;;;;5012054;28;20154;-72
2023/04/19 00:42:28;;;;;;;28.23;25.30;;;;;;;;;;5003108;28;20021;-73
2023/04/19 00:44:53;;;;;;;28.45;25.73;;;;;;;;;;5010834;28;20044;-73
2023/04/19 00:47:19;;;;;;;29.08;26.10;;;;;;;;;;5015048;28;20022;-71
2023/04/19 00:49:45;;;;;;;29.08;24.25;;;;;;;;;;5010715;28;20452;-71
2023/04/19 00:52:11;;;;;;;30.30;26.33;;;;;;;;;;5009245;28;20025;-72
2023/04/19 00:54:37;;;;;;;28.75;25.80;;;;;;;;;;5001563;28;20037;-72
2023/04/19 00:57:02;;;;;;;29.98;26.15;;;;;;;;;;5010601;28;20036;-74
2023/04/19 00:59:28;;;;;;;29.70;26.15;;;;;;;;;;5009749;28;20036;-75
2023/04/19 01:01:54;;;;;;;28.50;25.40;;;;;;;;;;5008030;28;20501;-72
2023/04/19 01:04:21;;;;;;;27.83;25.00;;;;;;;;;;5006942;28;20070;-72
2023/04/19 01:06:47;;;;;;;29.13;25.90;;;;;;;;;;5009030;28;20025;-74
2023/04/19 01:09:12;;;;;;;29.05;23.80;;;;;;;;;;5006254;28;20026;-75
2023/04/19 01:11:37;;;;;;;24.35;21.38;;;;;;;;;;5002365;28;20041;-73
2023/04/19 01:14:03;;;;;;;25.17;21.75;;;;;;;;;;5009778;28;20026;-75
2023/04/19 01:16:28;;;;;;;22.88;20.55;;;;;;;;;;5014031;28;20033;-73
2023/04/19 01:18:53;;;;;;;24.20;21.15;;;;;;;;;;5003427;28;20108;-72
2023/04/19 01:21:19;;;;;;;25.77;22.30;;;;;;;;;;5012290;28;20784;-73
2023/04/19 01:23:44;;;;;;;26.65;22.38;;;;;;;;;;5011495;28;20029;-73
2023/04/19 01:26:10;;;;;;;27.05;23.35;;;;;;;;;;5011089;28;20033;-73
2023/04/19 01:28:35;;;;;;;27.52;24.40;;;;;;;;;;4998738;28;20045;-73
2023/04/19 01:31:01;;;;;;;23.92;21.42;;;;;;;;;;5014499;28;20525;-73
2023/04/19 01:33:26;;;;;;;28.48;24.38;;;;;;;;;;5011815;28;20602;-75
2023/04/19 01:35:51;;;;;;;32.08;26.65;;;;;;;;;;5013942;28;20029;-72
2023/04/19 01:38:17;;;;;;;32.88;29.40;;;;;;;;;;5001816;28;20559;-74
2023/04/19 01:40:43;;;;;;;32.22;28.85;;;;;;;;;;5007580;28;21269;-73
2023/04/19 01:43:11;;;;;;;28.50;25.05;;;;;;;;;;5002223;28;20455;-72
2023/04/19 01:45:36;;;;;;;28.08;25.27;;;;;;;;;;5012454;28;20021;-75
2023/04/19 01:48:03;;;;;;;27.55;24.67;;;;;;;;;;5014535;28;20040;-74
2023/04/19 01:50:29;;;;;;;30.70;25.45;;;;;;;;;;5006082;28;20025;-72
2023/04/19 01:52:54;;;;;;;28.25;23.98;;;;;;;;;;5004977;28;20122;-72
2023/04/19 01:55:19;;;;;;;26.95;23.90;;;;;;;;;;5010740;28;20022;-73
2023/04/19 01:57:45;;;;;;;31.00;27.75;;;;;;;;;;5005144;28;20033;-73
2023/04/19 02:00:10;;;;;;;29.65;26.55;;;;;;;;;;5008896;28;20148;-75
2023/04/19 02:02:39;;;;;;;29.58;25.63;;;;;;;;;;4999788;28;20426;-72
2023/04/19 02:05:05;;;;;;;29.10;26.20;;;;;;;;;;5011037;28;20041;-73
2023/04/19 02:07:30;;;;;;;28.55;25.45;;;;;;;;;;5014494;28;20428;-73
2023/04/19 02:09:58;;;;;;;29.70;25.20;;;;;;;;;;5011285;28;20036;-75
2023/04/19 02:12:24;;;;;;;30.67;27.35;;;;;;;;;;5004513;28;20147;-73
2023/04/19 02:14:49;;;;;;;29.60;25.35;;;;;;;;;;4998136;28;20436;-72
2023/04/19 02:17:15;;;;;;;28.52;25.27;;;;;;;;;;5015186;28;20436;-72
2023/04/19 02:19:40;;;;;;;29.00;25.67;;;;;;;;;;5002242;28;20028;-74
2023/04/19 02:22:05;;;;;;;30.15;26.55;;;;;;;;;;5010028;28;20500;-73
2023/04/19 02:24:31;;;;;;;30.38;27.08;;;;;;;;;;5008441;28;20032;-72
2023/04/19 02:26:56;;;;;;;29.98;26.63;;;;;;;;;;5011708;28;20030;-75
2023/04/19 02:29:21;;;;;;;27.90;24.88;;;;;;;;;;5010778;28;20054;-74
2023/04/19 02:31:47;;;;;;;29.52;26.40;;;;;;;;;;5011178;28;20333;-73
2023/04/19 02:34:12;;;;;;;26.73;23.73;;;;;;;;;;5003567;28;20146;-74
2023/04/19 02:36:38;;;;;;;27.13;22.80;;;;;;;;;;5008187;28;20044;-71
2023/04/19 02:39:04;;;;;;;25.30;22.70;;;;;;;;;;5005949;28;20139;-72
2023/04/19 02:41:30;;;;;;;27.67;22.10;;;;;;;;;;5012160;28;20025;-73
2023/04/19 02:43:55;;;;;;;25.63;22.90;;;;;;;;;;5012067;28;20037;-76
2023/04/19 02:46:20;;;;;;;24.05;21.70;;;;;;;;;;5009122;28;20113;-73
2023/04/19 02:48:46;;;;;;;24.10;21.50;;;;;;;;;;5004616;28;20036;-74
2023/04/19 02:51:17;;;;;;;24.45;21.92;;;;;;;;;;5006653;28;20035;-73
2023/04/19 02:53:42;;;;;;;27.88;24.83;;;;;;;;;;5003811;28;20349;-72
2023/04/19 02:56:08;;;;;;;28.08;24.55;;;;;;;;;;5013508;28;20025;-74
2023/04/19 02:58:33;;;;;;;34.20;26.80;;;;;;;;;;5011975;28;20144;-72
2023/04/19 03:00:59;;;;;;;24.35;21.67;;;;;;;;;;5011922;28;20026;-74
2023/04/19 03:03:24;;;;;;;25.58;23.00;;;;;;;;;;5012787;28;20024;-72
2023/04/19 03:05:50;;;;;;;24.60;19.67;;;;;;;;;;5005641;28;20097;-75
2023/04/19 03:08:15;;;;;;;24.05;21.55;;;;;;;;;;5003737;28;20956;-74
2023/04/19 03:10:40;;;;;;;26.00;22.83;;;;;;;;;;5008421;28;20033;-73
2023/04/19 03:13:06;;;;;;;30.58;23.58;;;;;;;;;;4998650;28;20037;-76
2023/04/19 03:15:31;;;;;;;24.42;21.35;;;;;;;;;;5009204;28;20453;-73
2023/04/19 03:17:56;;;;;;;27.48;23.83;;;;;;;;;;5011758;28;20033;-73
2023/04/19 03:20:22;;;;;;;28.30;24.52;;;;;;;;;;5005392;28;20036;-72
2023/04/19 03:22:48;;;;;;;33.30;28.40;;;;;;;;;;5000510;28;20037;-73
2023/04/19 03:25:13;;;;;;;30.45;25.60;;;;;;;;;;5008259;28;20086;-75
2023/04/19 03:27:38;;;;;;;34.90;27.77;;;;;;;;;;5009931;28;20092;-73
2023/04/19 03:30:04;;;;;;;36.67;30.85;;;;;;;;;;5009766;28;20100;-76
2023/04/19 03:32:30;;;;;;;40.63;33.72;;;;;;;;;;5013261;28;20121;-75
2023/04/19 03:34:55;;;;;;;41.97;34.35;;;;;;;;;;5008784;28;20061;-73
2023/04/19 03:37:21;;;;;;;43.85;32.65;;;;;;;;;;5005475;28;20049;-75
2023/04/19 03:39:46;;;;;;;35.53;30.00;;;;;;;;;;5011620;28;20030;-74
2023/04/19 03:42:12;;;;;;;26.13;23.00;;;;;;;;;;5013893;28;20040;-73
2023/04/19 03:44:37;;;;;;;26.00;23.02;;;;;;;;;;5002607;28;20104;-74
2023/04/19 03:47:02;;;;;;;23.85;21.48;;;;;;;;;;5011485;28;20036;-73
2023/04/19 03:49:28;;;;;;;22.50;20.23;;;;;;;;;;5003126;28;20041;-74
2023/04/19 03:51:53;;;;;;;25.25;20.08;;;;;;;;;;5000614;28;20029;-75
2023/04/19 03:54:18;;;;;;;34.42;28.20;;;;;;;;;;4997644;28;20120;-73
2023/04/19 03:56:44;;;;;;;21.83;19.52;;;;;;;;;;4998922;28;20064;-72
2023/04/19 03:59:09;;;;;;;24.95;19.38;;;;;;;;;;4999782;28;21122;-75
2023/04/19 04:01:40;;;;;;;20.50;18.30;;;;;;;;;;5003666;28;20026;-73
2023/04/19 04:04:06;;;;;;;19.30;17.17;;;;;;;;;;5004830;28;20399;-72
2023/04/19 04:06:31;;;;;;;20.90;18.88;;;;;;;;;;5016764;28;20033;-73
2023/04/19 04:08:56;;;;;;;22.98;20.58;;;;;;;;;;5011692;28;20030;-73
2023/04/19 04:11:22;;;;;;;23.17;20.90;;;;;;;;;;5006696;28;20112;-72
2023/04/19 04:13:48;;;;;;;42.10;36.28;;;;;;;;;;5015352;28;20368;-74
2023/04/19 04:16:13;;;;;;;48.70;39.53;;;;;;;;;;4998308;28;20138;-74
2023/04/19 04:18:39;;;;;;;52.17;44.65;;;;;;;;;;4995451;28;20113;-76
2023/04/19 04:21:04;;;;;;;121.32;89.63;;;;;;;;;;5007133;28;20043;-74
2023/04/19 04:23:29;;;;;;;161.02;121.03;;;;;;;;;;5012491;28;20082;-73
2023/04/19 04:25:56;;;;;;;95.85;85.40;;;;;;;;;;5014724;28;20089;-74
2023/04/19 04:28:22;;;;;;;45.20;35.70;;;;;;;;;;5006369;28;20059;-73
2023/04/19 04:30:47;;;;;;;34.63;25.95;;;;;;;;;;5010823;28;20042;-73
2023/04/19 04:33:13;;;;;;;30.00;24.23;;;;;;;;;;5016352;28;20049;-73
2023/04/19 04:35:38;;;;;;;78.38;58.17;;;;;;;;;;5002295;28;20752;-75
2023/04/19 04:38:04;;;;;;;50.10;38.13;;;;;;;;;;5004567;28;20109;-74
2023/04/19 04:40:30;;;;;;;42.83;34.42;;;;;;;;;;5003836;28;20029;-74
2023/04/19 04:42:55;;;;;;;37.40;31.17;;;;;;;;;;5014471;28;21165;-73
2023/04/19 04:45:21;;;;;;;37.28;29.83;;;;;;;;;;5009958;28;20866;-72
2023/04/19 04:47:46;;;;;;;36.60;31.77;;;;;;;;;;5009138;28;20467;-72
2023/04/19 04:50:11;;;;;;;42.08;37.42;;;;;;;;;;5012351;28;20014;-72
2023/04/19 04:52:37;;;;;;;41.58;35.65;;;;;;;;;;5011620;28;20041;-75
2023/04/19 04:55:02;;;;;;;43.42;34.05;;;;;;;;;;4999781;28;20041;-74
2023/04/19 04:57:27;;;;;;;34.53;28.05;;;;;;;;;;5012101;28;20018;-74
2023/04/19 04:59:55;;;;;;;59.80;48.30;;;;;;;;;;5007953;28;20049;-75
2023/04/19 05:02:21;;;;;;;52.88;40.97;;;;;;;;;;5013472;28;20064;-72
2023/04/19 05:04:46;;;;;;;41.60;32.28;;;;;;;;;;5010991;28;20022;-73
2023/04/19 05:07:11;;;;;;;46.30;34.78;;;;;;;;;;5013420;28;20021;-71
2023/04/19 05:09:37;;;;;;;56.35;43.47;;;;;;;;;;5013265;28;20029;-75
2023/04/19 05:12:02;;;;;;;54.35;41.60;;;;;;;;;;5013161;28;20037;-73
2023/04/19 05:14:28;;;;;;;59.22;45.33;;;;;;;;;;5010325;28;20032;-75
2023/04/19 05:16:53;;;;;;;54.42;44.53;;;;;;;;;;5006039;28;20068;-74
2023/04/19 05:19:18;;;;;;;51.65;38.25;;;;;;;;;;4998634;28;20022;-73
2023/04/19 05:21:44;;;;;;;90.40;60.58;;;;;;;;;;5001237;28;20112;-72
2023/04/19 05:24:09;;;;;;;81.95;58.88;;;;;;;;;;5001412;28;20069;-74
2023/04/19 05:26:35;;;;;;;76.18;56.08;;;;;;;;;;5012119;28;20026;-71
2023/04/19 05:29:00;;;;;;;56.15;42.50;;;;;;;;;;5010465;28;20038;-72
2023/04/19 05:31:25;;;;;;;54.95;39.58;;;;;;;;;;5014571;28;20414;-73
2023/04/19 05:33:51;;;;;;;52.40;41.42;;;;;;;;;;5011215;28;20042;-75
2023/04/19 05:36:16;;;;;;;51.90;42.92;;;;;;;;;;5014688;28;20026;-76
2023/04/19 05:38:41;;;;;;;49.60;39.28;;;;;;;;;;5003480;28;20130;-75
2023/04/19 05:41:07;;;;;;;48.95;41.30;;;;;;;;;;5007066;28;20321;-75
2023/04/19 05:43:32;;;;;;;53.55;37.10;;;;;;;;;;5007983;28;20030;-76
2023/04/19 05:45:57;;;;;;;45.40;35.45;;;;;;;;;;5008050;28;20070;-75
2023/04/19 05:48:24;;;;;;;41.33;33.88;;;;;;;;;;5012774;28;20436;-74
2023/04/19 05:50:51;;;;;;;46.00;32.38;;;;;;;;;;5012868;28;20425;-74
2023/04/19 05:53:16;;;;;;;43.65;35.78;;;;;;;;;;5013013;28;20033;-74
2023/04/19 05:55:43;;;;;;;48.88;37.58;;;;;;;;;;5014131;28;20029;-76
2023/04/19 05:58:08;;;;;;;42.50;32.92;;;;;;;;;;5003880;28;20025;-74
2023/04/19 06:00:33;;;;;;;39.75;29.77;;;;;;;;;;5014668;28;20048;-77
2023/04/19 06:02:59;;;;;;;42.70;31.27;;;;;;;;;;5015493;28;20134;-74
2023/04/19 06:05:24;;;;;;;41.38;34.35;;;;;;;;;;5013090;28;20082;-79
2023/04/19 06:07:50;;;;;;;35.65;27.50;;;;;;;;;;5011165;28;20022;-74
2023/04/19 06:10:15;;;;;;;34.35;26.25;;;;;;;;;;5012869;28;20060;-75
2023/04/19 06:12:41;;;;;;;39.47;31.67;;;;;;;;;;5013252;28;20021;-77
2023/04/19 06:15:06;;;;;;;36.05;29.15;;;;;;;;;;5012875;28;20108;-74
2023/04/19 06:17:32;;;;;;;22.42;20.00;;;;;;;;;;5010983;28;20456;-73
2023/04/19 06:19:57;;;;;;;33.00;28.25;;;;;;;;;;5012298;28;20783;-73
2023/04/19 06:22:22;;;;;;;23.42;20.63;;;;;;;;;;5013620;28;20029;-74
2023/04/19 06:24:48;;;;;;;22.60;20.30;;;;;;;;;;5014706;28;20047;-74
2023/04/19 06:27:15;;;;;;;20.27;18.13;;;;;;;;;;5013966;28;20076;-73
2023/04/19 06:29:40;;;;;;;29.05;21.23;;;;;;;;;;5014108;28;20433;-73
2023/04/19 06:32:06;;;;;;;27.73;22.67;;;;;;;;;;5013661;28;20026;-73
2023/04/19 06:34:31;;;;;;;28.83;25.73;;;;;;;;;;5014836;28;20044;-72
2023/04/19 06:36:57;;;;;;;34.20;30.52;;;;;;;;;;5013770;28;20029;-73
2023/04/19 06:39:22;;;;;;;28.25;22.10;;;;;;;;;;5014307;28;20059;-74
2023/04/19 06:41:47;;;;;;;59.70;42.10;;;;;;;;;;5014570;28;20381;-75
2023/04/19 06:44:12;;;;;;;30.85;27.08;;;;;;;;;;5014373;28;20053;-73
2023/04/19 06:46:38;;;;;;;39.92;33.38;;;;;;;;;;5014966;28;20060;-74
2023/04/19 06:49:04;;;;;;;33.60;29.05;;;;;;;;;;5013466;28;20030;-74
2023/04/19 06:51:29;;;;;;;29.75;26.77;;;;;;;;;;5012170;28;20040;-76
2023/04/19 06:53:54;;;;;;;26.40;23.60;;;;;;;;;;5012633;28;20040;-73
2023/04/19 06:56:38;;;;;;;34.83;31.23;;;;;;;;;;5013696;28;20129;-77
2023/04/19 06:59:03;;;;;;;37.25;33.72;;;;;;;;;;5012675;28;20040;-74
2023/04/19 07:01:29;;;;;;;34.42;30.88;;;;;;;;;;5013414;28;20026;-73
2023/04/19 07:03:54;;;;;;;60.55;49.40;;;;;;;;;;5013254;28;20390;-73
2023/04/19 07:06:19;;;;;;;39.30;35.15;;;;;;;;;;5014258;28;20393;-74
2023/04/19 07:08:45;;;;;;;38.38;34.30;;;;;;;;;;5014331;28;20356;-74
2023/04/19 07:11:10;;;;;;;40.35;36.13;;;;;;;;;;5014239;28;20052;-73
2023/04/19 07:13:35;;;;;;;35.72;32.05;;;;;;;;;;5017724;28;20029;-74
2023/04/19 07:16:03;;;;;;;22.33;19.98;;;;;;;;;;5014514;28;20034;-77
2023/04/19 07:18:28;;;;;;;35.20;31.23;;;;;;;;;;5016174;28;20026;-73
2023/04/19 07:20:53;;;;;;;40.53;36.22;;;;;;;;;;5015799;28;20041;-74
2023/04/19 07:23:19;;;;;;;35.38;31.45;;;;;;;;;;5015344;28;20040;-75
2023/04/19 07:25:45;;;;;;;41.00;36.80;;;;;;;;;;5016837;28;20017;-74
2023/04/19 07:28:10;;;;;;;32.25;28.98;;;;;;;;;;5016329;28;20061;-74
2023/04/19 07:30:36;;;;;;;39.13;34.95;;;;;;;;;;5013819;28;20037;-76
2023/04/19 07:33:03;;;;;;;37.30;29.60;;;;;;;;;;5016123;28;20025;-75
2023/04/19 07:35:28;;;;;;;30.63;23.63;;;;;;;;;;5016448;28;20109;-74
2023/04/19 07:37:53;;;;;;;23.52;21.10;;;;;;;;;;5017920;28;20456;-74
2023/04/19 07:40:19;;;;;;;21.02;15.85;;;;;;;;;;5016561;28;20021;-73
2023/04/19 07:42:44;;;;;;;18.40;16.50;;;;;;;;;;5016984;28;20033;-74
2023/04/19 07:45:10;;;;;;;21.55;19.30;;;;;;;;;;5016860;28;20436;-76
2023/04/19 07:47:35;;;;;;;19.70;17.40;;;;;;;;;;5016705;28;20029;-76
2023/04/19 07:50:01;;;;;;;26.70;23.83;;;;;;;;;;5018115;28;20025;-76
2023/04/19 07:52:26;;;;;;;21.25;16.92;;;;;;;;;;5015900;28;20026;-74
2023/04/19 07:54:51;;;;;;;18.40;16.45;;;;;;;;;;5017573;28;20118;-74
2023/04/19 07:57:17;;;;;;;17.95;16.25;;;;;;;;;;5017340;28;20062;-74
2023/04/19 07:59:42;;;;;;;20.85;15.80;;;;;;;;;;5016125;28;20440;-74
2023/04/19 08:02:07;;;;;;;46.88;31.20;;;;;;;;;;5017652;28;20108;-74
2023/04/19 08:04:33;;;;;;;25.65;22.90;;;;;;;;;;5017062;28;20021;-74
2023/04/19 08:06:58;;;;;;;21.92;19.73;;;;;;;;;;5015276;28;20034;-74
2023/04/19 08:09:23;;;;;;;23.08;20.67;;;;;;;;;;5014901;28;20121;-75
2023/04/19 08:11:49;;;;;;;51.28;36.92;;;;;;;;;;5016501;28;20040;-75
2023/04/19 08:14:14;;;;;;;33.13;29.02;;;;;;;;;;5016533;28;20030;-74
2023/04/19 08:16:40;;;;;;;21.75;19.42;;;;;;;;;;5017264;28;20783;-76
2023/04/19 08:19:05;;;;;;;69.03;43.53;;;;;;;;;;5017611;28;20048;-73
2023/04/19 08:21:30;;;;;;;176.10;86.10;;;;;;;;;;5014662;28;20033;-74
2023/04/19 08:23:56;;;;;;;43.38;28.92;;;;;;;;;;5014264;28;20036;-74
2023/04/19 08:26:21;;;;;;;141.73;68.18;;;;;;;;;;5016659;28;20428;-74
2023/04/19 08:28:48;;;;;;;56.97;35.08;;;;;;;;;;5015799;28;20085;-74
2023/04/19 08:31:14;;;;;;;62.50;37.00;;;;;;;;;;5014083;28;20123;-76
2023/04/19 08:33:39;;;;;;;30.73;23.60;;;;;;;;;;5015387;28;20436;-74
2023/04/19 08:36:05;;;;;;;20.45;18.08;;;;;;;;;;5016519;28;20024;-74
2023/04/19 08:38:30;;;;;;;17.58;15.52;;;;;;;;;;5015796;28;20029;-74
2023/04/19 08:40:55;;;;;;;25.92;23.50;;;;;;;;;;5015701;28;20477;-73
2023/04/19 08:43:23;;;;;;;23.85;21.60;;;;;;;;;;5017102;28;20029;-73
2023/04/19 08:45:49;;;;;;;27.77;22.33;;;;;;;;;;5015558;28;20112;-73
2023/04/19 08:48:15;;;;;;;66.95;35.83;;;;;;;;;;5015291;28;21031;-73
2023/04/19 08:50:40;;;;;;;59.60;35.47;;;;;;;;;;5013288;28;20022;-73
2023/04/19 08:53:09;;;;;;;41.85;29.00;;;;;;;;;;5014995;28;20060;-73
2023/04/19 08:55:39;;;;;;;20.67;17.73;;;;;;;;;;5014332;28;20036;-74
2023/04/19 08:58:05;;;;;;;23.70;21.23;;;;;;;;;;5014307;28;20448;-74
2023/04/19 09:00:36;;;;;;;51.92;37.17;;;;;;;;;;5015680;28;20063;-73
2023/04/19 09:03:02;;;;;;;25.42;20.92;;;;;;;;;;5014673;28;20018;-75
2023/04/19 09:05:27;;;;;;;31.50;27.98;;;;;;;;;;5015482;28;20037;-74
2023/04/19 09:07:52;;;;;;;49.60;42.38;;;;;;;;;;5014093;28;20168;-73
2023/04/19 09:10:19;;;;;;;34.08;30.48;;;;;;;;;;5016572;28;20029;-72
2023/04/19 09:13:04;;;;;;;24.25;19.67;;;;;;;;;;5013166;28;20393;-73
2023/04/19 09:15:37;;;;;;;23.00;19.85;;;;;;;;;;5015543;28;20392;-75
2023/04/19 09:18:04;;;;;;;46.88;31.83;;;;;;;;;;5011106;28;20089;-73
2023/04/19 09:20:40;;;;;;;38.72;32.28;;;;;;;;;;5014046;28;20486;-75
2023/04/19 09:23:07;;;;;;;33.50;23.90;;;;;;;;;;5013439;28;20021;-74
2023/04/19 09:25:33;;;;;;;23.85;21.35;;;;;;;;;;5016738;28;20310;-74
2023/04/19 09:28:11;;;;;;;21.15;18.95;;;;;;;;;;5014472;28;20391;-74
2023/04/19 09:30:37;;;;;;;27.45;24.15;;;;;;;;;;5011959;28;20041;-73
2023/04/19 09:33:02;;;;;;;22.75;20.45;;;;;;;;;;5014552;28;20030;-73
2023/04/19 09:35:40;;;;;;;23.70;21.23;;;;;;;;;;5014535;28;20060;-73
2023/04/19 09:38:06;;;;;;;21.70;19.50;;;;;;;;;;5014507;28;20078;-76
2023/04/19 09:40:31;;;;;;;23.60;21.10;;;;;;;;;;5012532;28;20025;-73
2023/04/19 09:42:57;;;;;;;31.20;25.08;;;;;;;;;;5014086;28;20026;-74
2023/04/19 09:45:22;;;;;;;35.10;31.25;;;;;;;;;;5012660;28;20034;-75
2023/04/19 09:48:01;;;;;;;37.60;33.72;;;;;;;;;;5012245;28;20030;-74
2023/04/19 09:50:27;;;;;;;20.63;18.52;;;;;;;;;;5014257;28;20049;-74
2023/04/19 09:52:53;;;;;;;21.77;19.73;;;;;;;;;;5014514;28;20061;-75
2023/04/19 09:55:18;;;;;;;18.73;16.83;;;;;;;;;;5015184;28;20811;-73
2023/04/19 09:57:44;;;;;;;21.95;19.73;;;;;;;;;;5013640;28;20030;-74
2023/04/19 10:00:12;;;;;;;24.80;22.17;;;;;;;;;;5013175;28;20099;-73
2023/04/19 10:02:39;;;;;;;43.83;33.28;;;;;;;;;;5014472;28;20044;-72
2023/04/19 10:05:05;;;;;;;31.52;28.17;;;;;;;;;;5014726;28;20086;-73
2023/04/19 10:07:31;;;;;;;43.95;34.88;;;;;;;;;;5013120;28;20797;-73
2023/04/19 10:09:57;;;;;;;31.75;28.35;;;;;;;;;;5013460;28;20053;-73
2023/04/19 10:12:23;;;;;;;34.47;30.88;;;;;;;;;;5013510;28;20068;-72
2023/04/19 10:14:49;;;;;;;28.80;25.70;;;;;;;;;;5014251;28;20033;-73
2023/04/19 10:17:15;;;;;;;28.27;25.40;;;;;;;;;;5012858;28;20025;-73
2023/04/19 10:19:41;;;;;;;28.40;24.55;;;;;;;;;;5013576;28;20391;-73
2023/04/19 10:22:07;;;;;;;31.33;24.75;;;;;;;;;;5013703;28;20051;-72
2023/04/19 10:24:33;;;;;;;30.17;27.08;;;;;;;;;;5014876;28;20481;-74
2023/04/19 10:27:11;;;;;;;29.70;26.63;;;;;;;;;;5013693;28;20060;-73
2023/04/19 10:29:52;;;;;;;38.05;33.78;;;;;;;;;;5014308;28;20050;-73
2023/04/19 10:32:17;;;;;;;30.60;26.85;;;;;;;;;;5013303;28;20124;-73
2023/04/19 10:34:44;;;;;;;35.05;28.40;;;;;;;;;;5013488;28;20109;-76
2023/04/19 10:37:10;;;;;;;39.70;35.05;;;;;;;;;;5016447;28;20036;-73
2023/04/19 10:39:42;;;;;;;38.05;32.80;;;;;;;;;;5014153;28;20030;-72
2023/04/19 10:42:07;;;;;;;23.35;20.95;;;;;;;;;;5007949;28;20076;-73
2023/04/19 10:44:33;;;;;;;26.33;22.60;;;;;;;;;;5013612;28;20420;-72
2023/04/19 10:46:58;;;;;;;24.10;21.60;;;;;;;;;;5014221;28;20036;-72
2023/04/19 10:49:25;;;;;;;19.65;17.65;;;;;;;;;;5012730;28;20405;-76
2023/04/19 10:51:59;;;;;;;21.17;19.02;;;;;;;;;;5012813;28;20042;-73
2023/04/19 10:54:30;;;;;;;19.90;17.90;;;;;;;;;;5014154;28;20136;-74
2023/04/19 10:56:57;;;;;;;17.33;15.60;;;;;;;;;;5012995;28;20041;-73
2023/04/19 10:59:23;;;;;;;19.88;17.90;;;;;;;;;;5012626;28;20898;-76
2023/04/19 11:01:48;;;;;;;23.83;21.52;;;;;;;;;;5015721;28;20496;-72
2023/04/19 11:04:16;;;;;;;21.15;18.15;;;;;;;;;;5013188;28;20065;-73
2023/04/19 11:06:54;;;;;;;21.85;19.58;;;;;;;;;;5014028;28;20018;-75
2023/04/19 11:09:37;;;;;;;17.13;15.38;;;;;;;;;;5010411;28;20029;-71
2023/04/19 11:12:07;;;;;;;18.40;14.48;;;;;;;;;;5009910;28;20033;-74
2023/04/19 11:14:32;;;;;;;;;;;;;;;;;;5014042;28;20120;-73
2023/04/19 11:16:58;;;;;;;19.57;17.60;;;;;;;;;;5012894;28;20403;-72
2023/04/19 11:19:23;;;;;;;20.83;18.05;;;;;;;;;;5014216;28;20643;-75
2023/04/19 11:21:49;;;;;;;23.05;20.75;;;;;;;;;;5013936;28;20093;-72
2023/04/19 11:24:17;;;;;;;24.50;21.98;;;;;;;;;;5012353;28;20040;-72
2023/04/19 11:26:46;;;;;;;22.08;20.02;;;;;;;;;;5011892;28;20029;-74
2023/04/19 11:29:11;;;;;;;31.97;28.77;;;;;;;;;;5013016;28;20042;-72
2023/04/19 11:31:37;;;;;;;26.45;23.73;;;;;;;;;;5012821;28;20275;-74
2023/04/19 11:34:03;;;;;;;29.27;26.20;;;;;;;;;;5014262;28;20094;-74
2023/04/19 11:36:28;;;;;;;27.23;24.45;;;;;;;;;;5014154;28;20030;-73
2023/04/19 11:38:53;;;;;;;31.90;28.60;;;;;;;;;;5014076;28;20034;-71
2023/04/19 11:41:19;;;;;;;25.60;23.10;;;;;;;;;;5012288;28;20045;-72
2023/04/19 11:43:45;;;;;;;23.77;21.25;;;;;;;;;;5013260;28;20021;-72
2023/04/19 11:46:12;;;;;;;28.25;23.63;;;;;;;;;;5013615;28;20025;-72
2023/04/19 11:48:55;;;;;;;22.30;20.13;;;;;;;;;;5015018;28;20030;-72
2023/04/19 11:51:21;;;;;;;44.95;36.95;;;;;;;;;;5012332;28;20034;-72
2023/04/19 11:53:46;;;;;;;24.63;22.05;;;;;;;;;;5013493;28;20142;-72
2023/04/19 11:56:14;;;;;;;32.92;29.15;;;;;;;;;;5011456;28;20037;-72
2023/04/19 11:58:50;;;;;;;112.25;84.10;;;;;;;;;;5017000;28;20029;-74
2023/04/19 12:01:19;;;;;;;35.95;31.55;;;;;;;;;;5013181;28;20555;-72
2023/04/19 12:03:44;;;;;;;28.92;26.13;;;;;;;;;;5014905;28;20431;-72
2023/04/19 12:06:11;;;;;;;22.70;20.40;;;;;;;;;;5016561;28;20037;-72
2023/04/19 12:08:46;;;;;;;26.63;23.77;;;;;;;;;;5015797;28;20065;-73
2023/04/19 12:11:11;;;;;;;51.53;38.72;;;;;;;;;;5017693;28;20387;-72
2023/04/19 12:13:37;;;;;;;31.60;27.17;;;;;;;;;;5015208;28;20444;-73
2023/04/19 12:16:02;;;;;;;44.90;36.22;;;;;;;;;;5015672;28;20052;-73
2023/04/19 12:18:42;;;;;;;39.42;31.60;;;;;;;;;;5016694;28;20428;-72
2023/04/19 12:21:07;;;;;;;29.40;25.95;;;;;;;;;;5012673;28;20022;-73
2023/04/19 12:23:32;;;;;;;34.63;30.23;;;;;;;;;;5017301;28;20436;-72
2023/04/19 12:26:04;;;;;;;38.03;29.65;;;;;;;;;;5012757;28;20537;-72
2023/04/19 12:28:29;;;;;;;36.25;31.38;;;;;;;;;;5012613;28;20160;-72
2023/04/19 12:30:55;;;;;;;32.42;28.05;;;;;;;;;;5008021;28;20109;-73
2023/04/19 12:33:20;;;;;;;33.13;28.02;;;;;;;;;;5011802;28;20218;-72
2023/04/19 12:35:45;;;;;;;37.38;32.25;;;;;;;;;;5008800;28;20026;-73
2023/04/19 12:38:11;;;;;;;29.95;26.75;;;;;;;;;;5012144;28;20036;-73
2023/04/19 12:40:36;;;;;;;26.70;22.25;;;;;;;;;;5013073;28;20025;-75
2023/04/19 12:43:01;;;;;;;24.23;21.42;;;;;;;;;;5008757;28;20037;-75
2023/04/19 12:45:27;;;;;;;26.05;23.33;;;;;;;;;;5001103;28;20410;-74
2023/04/19 12:47:52;;;;;;;24.15;21.02;;;;;;;;;;5003365;28;20025;-73
2023/04/19 12:50:18;;;;;;;24.65;22.30;;;;;;;;;;5004216;28;20363;-73
2023/04/19 12:52:43;;;;;;;28.67;25.67;;;;;;;;;;5003608;28;20501;-73
2023/04/19 12:55:08;;;;;;;22.27;20.08;;;;;;;;;;5001823;28;20042;-73
2023/04/19 12:57:34;;;;;;;17.40;15.27;;;;;;;;;;5002136;28;20053;-75
2023/04/19 12:59:59;;;;;;;14.98;13.60;;;;;;;;;;5002682;28;20108;-73
2023/04/19 13:02:25;;;;;;;15.32;13.82;;;;;;;;;;5003314;28;20445;-72
2023/04/19 13:04:50;;;;;;;14.40;13.10;;;;;;;;;;5003789;28;20031;-76
2023/04/19 13:07:16;;;;;;;16.02;14.43;;;;;;;;;;5002572;28;20034;-73
2023/04/19 13:09:41;;;;;;;16.27;14.77;;;;;;;;;;5002216;28;20029;-73
2023/04/19 13:12:06;;;;;;;15.30;13.88;;;;;;;;;;5003559;28;20029;-75
2023/04/19 13:14:32;;;;;;;22.73;19.98;;;;;;;;;;5015375;28;20025;-72
2023/04/19 13:16:57;;;;;;;13.35;12.15;;;;;;;;;;5014151;28;20410;-75
2023/04/19 13:19:22;;;;;;;22.50;20.17;;;;;;;;;;5014269;28;20057;-72
2023/04/19 13:21:48;;;;;;;14.63;13.18;;;;;;;;;;5015694;28;20025;-72
2023/04/19 13:24:13;;;;;;;15.93;14.30;;;;;;;;;;5015132;28;20102;-74
2023/04/19 13:26:38;;;;;;;15.63;13.98;;;;;;;;;;5015838;28;20397;-75
2023/04/19 13:29:04;;;;;;;26.33;23.58;;;;;;;;;;5010259;28;20467;-75
2023/04/19 13:31:29;;;;;;;21.80;19.52;;;;;;;;;;5019013;28;20458;-73
2023/04/19 13:33:55;;;;;;;15.75;13.70;;;;;;;;;;5015085;28;20025;-73
2023/04/19 13:36:21;;;;;;;17.50;14.20;;;;;;;;;;5004579;28;20329;-75
2023/04/19 13:38:46;;;;;;;18.33;13.48;;;;;;;;;;5011660;28;20029;-73
2023/04/19 13:41:12;;;;;;;25.02;21.30;;;;;;;;;;5013117;28;20033;-74
2023/04/19 13:43:37;;;;;;;29.38;25.17;;;;;;;;;;5015131;28;20158;-73
2023/04/19 13:46:03;;;;;;;26.33;21.77;;;;;;;;;;5014420;28;20021;-73
2023/04/19 13:48:28;;;;;;;19.83;17.73;;;;;;;;;;5014794;28;20030;-74
2023/04/19 13:50:57;;;;;;;19.33;16.58;;;;;;;;;;5005909;28;20045;-77
2023/04/19 13:53:22;;;;;;;14.65;13.18;;;;;;;;;;5012137;28;20040;-74
2023/04/19 13:55:48;;;;;;;13.40;11.90;;;;;;;;;;5014407;28;20033;-73
2023/04/19 13:58:13;;;;;;;19.70;16.75;;;;;;;;;;5013025;28;20025;-76
2023/04/19 14:00:39;;;;;;;20.35;17.52;;;;;;;;;;5012340;28;20033;-73
2023/04/19 14:03:04;;;;;;;25.15;16.17;;;;;;;;;;5014208;28;20026;-74
2023/04/19 14:05:30;;;;;;;18.88;14.95;;;;;;;;;;5011519;28;20025;-73
2023/04/19 14:07:55;;;;;;;15.43;11.43;;;;;;;;;;5005434;28;20376;-75
2023/04/19 14:10:21;;;;;;;24.70;20.58;;;;;;;;;;5008579;28;20418;-73